sensor_id;sensor_type;location;lat;lon;timestamp;temperature;humidity
947;DHT22;460;48.734;9.152;2023-12-20T00:00:30;6.10;99.90
947;DHT22;460;48.734;9.152;2023-12-20T00:02:57;5.90;99.90
947;DHT22;460;48.734;9.152;2023-12-20T00:05:24;5.90;99.90
947;DHT22;460;48.734;9.152;2023-12-20T00:07:51;5.90;99.90
947;DHT22;460;48.734;9.152;2023-12-20T00:10:18;6.00;99.90
947;DHT22;460;48.734;9.152;2023-12-20T00:12:45;6.00;99.90
947;DHT22;460;48.734;9.152;2023-12-20T00:15:11;6.00;99.90
947;DHT22;460;48.734;9.152;2023-12-20T00:17:40;5.90;99.90
947;DHT22;460;48.734;9.152;2023-12-20T00:20:07;5.90;99.90
947;DHT22;460;48.734;9.152;2023-12-20T00:22:34;6.10;99.90
947;DHT22;460;48.734;9.152;2023-12-20T00:25:01;6.10;99.90
947;DHT22;460;48.734;9.152;2023-12-20T00:27:28;6.00;99.90
947;DHT22;460;48.734;9.152;2023-12-20T00:29:55;6.00;99.90
947;DHT22;460;48.734;9.152;2023-12-20T00:32:22;6.10;99.90
947;DHT22;460;48.734;9.152;2023-12-20T00:34:50;6.10;99.90
947;DHT22;460;48.734;9.152;2023-12-20T00:37:17;6.00;99.90
947;DHT22;460;48.734;9.152;2023-12-20T00:39:43;6.00;99.90
947;DHT22;460;48.734;9.152;2023-12-20T00:42:10;5.90;99.90
947;DHT22;460;48.734;9.152;2023-12-20T00:44:37;6.00;99.90
947;DHT22;460;48.734;9.152;2023-12-20T00:47:04;5.90;99.90
947;DHT22;460;48.734;9.152;2023-12-20T00:49:31;5.90;99.90
947;DHT22;460;48.734;9.152;2023-12-20T00:51:59;5.90;99.90
947;DHT22;460;48.734;9.152;2023-12-20T00:54:26;5.90;99.90
947;DHT22;460;48.734;9.152;2023-12-20T00:56:52;5.80;99.90
947;DHT22;460;48.734;9.152;2023-12-20T00:59:19;5.90;99.90
947;DHT22;460;48.734;9.152;2023-12-20T01:01:46;5.90;99.90
947;DHT22;460;48.734;9.152;2023-12-20T01:04:13;5.80;99.90
947;DHT22;460;48.734;9.152;2023-12-20T01:06:39;5.70;99.90
947;DHT22;460;48.734;9.152;2023-12-20T01:09:07;5.70;99.90
947;DHT22;460;48.734;9.152;2023-12-20T01:11:34;5.70;99.90
947;DHT22;460;48.734;9.152;2023-12-20T01:14:01;5.70;99.90
947;DHT22;460;48.734;9.152;2023-12-20T01:16:28;5.70;99.90
947;DHT22;460;48.734;9.152;2023-12-20T01:18:54;5.70;99.90
947;DHT22;460;48.734;9.152;2023-12-20T01:21:21;5.70;99.90
947;DHT22;460;48.734;9.152;2023-12-20T01:23:48;5.60;99.90
947;DHT22;460;48.734;9.152;2023-12-20T01:26:16;5.60;99.90
947;DHT22;460;48.734;9.152;2023-12-20T01:28:43;5.70;99.90
947;DHT22;460;48.734;9.152;2023-12-20T01:31:10;5.70;99.90
947;DHT22;460;48.734;9.152;2023-12-20T01:33:36;5.60;99.90
947;DHT22;460;48.734;9.152;2023-12-20T01:36:04;5.60;99.90
947;DHT22;460;48.734;9.152;2023-12-20T01:38:31;5.50;99.90
947;DHT22;460;48.734;9.152;2023-12-20T01:40:57;5.50;99.90
947;DHT22;460;48.734;9.152;2023-12-20T01:43:26;5.50;99.90
947;DHT22;460;48.734;9.152;2023-12-20T01:45:52;5.50;99.90
947;DHT22;460;48.734;9.152;2023-12-20T01:48:21;5.50;99.90
947;DHT22;460;48.734;9.152;2023-12-20T01:50:49;5.50;99.90
947;DHT22;460;48.734;9.152;2023-12-20T01:53:16;5.50;99.90
947;DHT22;460;48.734;9.152;2023-12-20T01:55:43;5.50;99.90
947;DHT22;460;48.734;9.152;2023-12-20T01:58:12;5.50;99.90
947;DHT22;460;48.734;9.152;2023-12-20T02:00:40;5.50;99.90
947;DHT22;460;48.734;9.152;2023-12-20T02:03:07;5.50;99.90
947;DHT22;460;48.734;9.152;2023-12-20T02:05:35;5.50;99.90
947;DHT22;460;48.734;9.152;2023-12-20T02:08:02;5.50;99.90
947;DHT22;460;48.734;9.152;2023-12-20T02:10:30;5.40;99.90
947;DHT22;460;48.734;9.152;2023-12-20T02:12:56;5.60;99.90
947;DHT22;460;48.734;9.152;2023-12-20T02:15:23;5.50;99.90
947;DHT22;460;48.734;9.152;2023-12-20T02:17:52;5.50;99.90
947;DHT22;460;48.734;9.152;2023-12-20T02:20:18;5.50;99.90
947;DHT22;460;48.734;9.152;2023-12-20T02:22:47;5.50;99.90
947;DHT22;460;48.734;9.152;2023-12-20T02:25:13;5.50;99.90
947;DHT22;460;48.734;9.152;2023-12-20T02:27:40;5.50;99.90
947;DHT22;460;48.734;9.152;2023-12-20T02:30:07;5.50;99.90
947;DHT22;460;48.734;9.152;2023-12-20T02:32:34;5.50;99.90
947;DHT22;460;48.734;9.152;2023-12-20T02:35:01;5.50;99.90
947;DHT22;460;48.734;9.152;2023-12-20T02:37:28;5.50;99.90
947;DHT22;460;48.734;9.152;2023-12-20T02:39:56;5.50;99.90
947;DHT22;460;48.734;9.152;2023-12-20T02:42:23;5.50;99.90
947;DHT22;460;48.734;9.152;2023-12-20T02:44:49;5.50;99.90
947;DHT22;460;48.734;9.152;2023-12-20T02:47:16;5.50;99.90
947;DHT22;460;48.734;9.152;2023-12-20T02:49:43;5.50;99.90
947;DHT22;460;48.734;9.152;2023-12-20T02:52:10;5.50;99.90
947;DHT22;460;48.734;9.152;2023-12-20T02:54:37;5.50;99.90
947;DHT22;460;48.734;9.152;2023-12-20T02:57:05;5.50;99.90
947;DHT22;460;48.734;9.152;2023-12-20T02:59:32;5.50;99.90
947;DHT22;460;48.734;9.152;2023-12-20T03:01:59;5.50;99.90
947;DHT22;460;48.734;9.152;2023-12-20T03:04:26;5.60;99.90
947;DHT22;460;48.734;9.152;2023-12-20T03:06:52;5.60;99.90
947;DHT22;460;48.734;9.152;2023-12-20T03:09:19;5.60;99.90
947;DHT22;460;48.734;9.152;2023-12-20T03:11:46;5.50;99.90
947;DHT22;460;48.734;9.152;2023-12-20T03:14:14;5.50;99.90
947;DHT22;460;48.734;9.152;2023-12-20T03:16:41;5.50;99.90
947;DHT22;460;48.734;9.152;2023-12-20T03:19:07;5.40;99.90
947;DHT22;460;48.734;9.152;2023-12-20T03:21:34;5.50;99.90
947;DHT22;460;48.734;9.152;2023-12-20T03:24:01;5.50;99.90
947;DHT22;460;48.734;9.152;2023-12-20T03:26:28;5.40;99.90
947;DHT22;460;48.734;9.152;2023-12-20T03:28:54;5.40;99.90
947;DHT22;460;48.734;9.152;2023-12-20T03:31:23;5.40;99.90
947;DHT22;460;48.734;9.152;2023-12-20T03:33:50;5.40;99.90
947;DHT22;460;48.734;9.152;2023-12-20T03:36:19;5.30;99.90
947;DHT22;460;48.734;9.152;2023-12-20T03:38:45;5.30;99.90
947;DHT22;460;48.734;9.152;2023-12-20T03:41:12;5.30;99.90
947;DHT22;460;48.734;9.152;2023-12-20T03:43:39;5.30;99.90
947;DHT22;460;48.734;9.152;2023-12-20T03:46:08;5.30;99.90
947;DHT22;460;48.734;9.152;2023-12-20T03:48:37;5.30;99.90
947;DHT22;460;48.734;9.152;2023-12-20T03:51:04;5.30;99.90
947;DHT22;460;48.734;9.152;2023-12-20T03:53:31;5.20;99.90
947;DHT22;460;48.734;9.152;2023-12-20T03:55:59;5.20;99.90
947;DHT22;460;48.734;9.152;2023-12-20T03:58:26;5.10;99.90
947;DHT22;460;48.734;9.152;2023-12-20T04:00:53;5.10;99.90
947;DHT22;460;48.734;9.152;2023-12-20T04:03:21;5.20;99.90
947;DHT22;460;48.734;9.152;2023-12-20T04:05:50;5.10;99.90
947;DHT22;460;48.734;9.152;2023-12-20T04:08:17;5.10;99.90
947;DHT22;460;48.734;9.152;2023-12-20T04:10:45;5.10;99.90
947;DHT22;460;48.734;9.152;2023-12-20T04:13:12;5.10;99.90
947;DHT22;460;48.734;9.152;2023-12-20T04:15:39;5.10;99.90
947;DHT22;460;48.734;9.152;2023-12-20T04:18:06;5.10;99.90
947;DHT22;460;48.734;9.152;2023-12-20T04:20:33;5.10;99.90
947;DHT22;460;48.734;9.152;2023-12-20T04:23:00;5.10;99.90
947;DHT22;460;48.734;9.152;2023-12-20T04:25:27;5.00;99.90
947;DHT22;460;48.734;9.152;2023-12-20T04:27:53;5.00;99.90
947;DHT22;460;48.734;9.152;2023-12-20T04:30:22;5.00;99.90
947;DHT22;460;48.734;9.152;2023-12-20T04:32:50;5.00;99.90
947;DHT22;460;48.734;9.152;2023-12-20T04:35:17;5.00;99.90
947;DHT22;460;48.734;9.152;2023-12-20T04:37:45;5.00;99.90
947;DHT22;460;48.734;9.152;2023-12-20T04:40:15;5.00;99.90
947;DHT22;460;48.734;9.152;2023-12-20T04:42:42;5.00;99.90
947;DHT22;460;48.734;9.152;2023-12-20T04:45:10;5.00;99.90
947;DHT22;460;48.734;9.152;2023-12-20T04:47:39;4.90;99.90
947;DHT22;460;48.734;9.152;2023-12-20T04:50:09;5.00;99.90
947;DHT22;460;48.734;9.152;2023-12-20T04:52:36;4.90;99.90
947;DHT22;460;48.734;9.152;2023-12-20T04:55:05;4.90;99.90
947;DHT22;460;48.734;9.152;2023-12-20T04:57:34;4.90;99.90
947;DHT22;460;48.734;9.152;2023-12-20T05:00:01;4.90;99.90
947;DHT22;460;48.734;9.152;2023-12-20T05:02:30;4.90;99.90
947;DHT22;460;48.734;9.152;2023-12-20T05:04:58;4.90;99.90
947;DHT22;460;48.734;9.152;2023-12-20T05:07:25;4.90;99.90
947;DHT22;460;48.734;9.152;2023-12-20T05:09:52;4.90;99.90
947;DHT22;460;48.734;9.152;2023-12-20T05:12:20;4.90;99.90
947;DHT22;460;48.734;9.152;2023-12-20T05:14:48;4.90;99.90
947;DHT22;460;48.734;9.152;2023-12-20T05:17:16;4.80;99.90
947;DHT22;460;48.734;9.152;2023-12-20T05:19:43;4.90;99.90
947;DHT22;460;48.734;9.152;2023-12-20T05:22:10;4.80;99.90
947;DHT22;460;48.734;9.152;2023-12-20T05:24:37;4.80;99.90
947;DHT22;460;48.734;9.152;2023-12-20T05:27:04;4.80;99.90
947;DHT22;460;48.734;9.152;2023-12-20T05:29:31;4.90;99.90
947;DHT22;460;48.734;9.152;2023-12-20T05:31:59;4.80;99.90
947;DHT22;460;48.734;9.152;2023-12-20T05:34:26;4.80;99.90
947;DHT22;460;48.734;9.152;2023-12-20T05:36:53;4.80;99.90
947;DHT22;460;48.734;9.152;2023-12-20T05:39:20;4.80;99.90
947;DHT22;460;48.734;9.152;2023-12-20T05:41:46;4.80;99.90
947;DHT22;460;48.734;9.152;2023-12-20T05:44:13;4.80;99.90
947;DHT22;460;48.734;9.152;2023-12-20T05:46:40;4.80;99.90
947;DHT22;460;48.734;9.152;2023-12-20T05:49:08;4.80;99.90
947;DHT22;460;48.734;9.152;2023-12-20T05:51:36;4.80;99.90
947;DHT22;460;48.734;9.152;2023-12-20T05:54:03;4.80;99.90
947;DHT22;460;48.734;9.152;2023-12-20T05:56:29;4.80;99.90
947;DHT22;460;48.734;9.152;2023-12-20T05:58:56;4.80;99.90
947;DHT22;460;48.734;9.152;2023-12-20T06:01:24;4.80;99.90
947;DHT22;460;48.734;9.152;2023-12-20T06:03:51;4.90;99.90
947;DHT22;460;48.734;9.152;2023-12-20T06:06:19;4.90;99.90
947;DHT22;460;48.734;9.152;2023-12-20T06:08:45;4.90;99.90
947;DHT22;460;48.734;9.152;2023-12-20T06:11:12;4.90;99.90
947;DHT22;460;48.734;9.152;2023-12-20T06:13:40;4.80;99.90
947;DHT22;460;48.734;9.152;2023-12-20T06:16:07;4.80;99.90
947;DHT22;460;48.734;9.152;2023-12-20T06:18:34;4.90;99.90
947;DHT22;460;48.734;9.152;2023-12-20T06:21:02;4.90;99.90
947;DHT22;460;48.734;9.152;2023-12-20T06:23:31;4.90;99.90
947;DHT22;460;48.734;9.152;2023-12-20T06:25:57;5.00;99.90
947;DHT22;460;48.734;9.152;2023-12-20T06:28:24;4.90;99.90
947;DHT22;460;48.734;9.152;2023-12-20T06:30:51;4.90;99.90
947;DHT22;460;48.734;9.152;2023-12-20T06:33:20;4.90;99.90
947;DHT22;460;48.734;9.152;2023-12-20T06:35:47;4.90;99.90
947;DHT22;460;48.734;9.152;2023-12-20T06:38:14;4.90;99.90
947;DHT22;460;48.734;9.152;2023-12-20T06:40:43;5.00;99.90
947;DHT22;460;48.734;9.152;2023-12-20T06:43:09;4.90;99.90
947;DHT22;460;48.734;9.152;2023-12-20T06:45:36;4.90;99.90
947;DHT22;460;48.734;9.152;2023-12-20T06:48:04;4.90;99.90
947;DHT22;460;48.734;9.152;2023-12-20T06:50:31;4.90;99.90
947;DHT22;460;48.734;9.152;2023-12-20T06:52:57;5.00;99.90
947;DHT22;460;48.734;9.152;2023-12-20T06:55:24;5.00;99.90
947;DHT22;460;48.734;9.152;2023-12-20T06:57:52;5.00;99.90
947;DHT22;460;48.734;9.152;2023-12-20T07:00:19;5.00;99.90
947;DHT22;460;48.734;9.152;2023-12-20T07:02:46;5.10;99.90
947;DHT22;460;48.734;9.152;2023-12-20T07:05:16;5.10;99.90
947;DHT22;460;48.734;9.152;2023-12-20T07:07:45;5.10;99.90
947;DHT22;460;48.734;9.152;2023-12-20T07:10:12;5.00;99.90
947;DHT22;460;48.734;9.152;2023-12-20T07:12:38;5.10;99.90
947;DHT22;460;48.734;9.152;2023-12-20T07:15:08;5.10;99.90
947;DHT22;460;48.734;9.152;2023-12-20T07:17:35;5.10;99.90
947;DHT22;460;48.734;9.152;2023-12-20T07:20:01;5.20;99.90
947;DHT22;460;48.734;9.152;2023-12-20T07:22:29;5.10;99.90
947;DHT22;460;48.734;9.152;2023-12-20T07:24:57;5.10;99.90
947;DHT22;460;48.734;9.152;2023-12-20T07:27:23;5.00;99.90
947;DHT22;460;48.734;9.152;2023-12-20T07:29:50;5.10;99.90
947;DHT22;460;48.734;9.152;2023-12-20T07:32:18;5.10;99.90
947;DHT22;460;48.734;9.152;2023-12-20T07:34:45;5.10;99.90
947;DHT22;460;48.734;9.152;2023-12-20T07:37:12;5.20;99.90
947;DHT22;460;48.734;9.152;2023-12-20T07:39:40;5.10;99.90
947;DHT22;460;48.734;9.152;2023-12-20T07:42:07;5.00;99.90
947;DHT22;460;48.734;9.152;2023-12-20T07:44:34;5.00;99.90
947;DHT22;460;48.734;9.152;2023-12-20T07:47:01;4.90;99.90
947;DHT22;460;48.734;9.152;2023-12-20T07:49:30;4.80;99.90
947;DHT22;460;48.734;9.152;2023-12-20T07:51:57;4.80;99.90
947;DHT22;460;48.734;9.152;2023-12-20T07:54:24;4.80;99.90
947;DHT22;460;48.734;9.152;2023-12-20T07:56:51;4.70;99.90
947;DHT22;460;48.734;9.152;2023-12-20T07:59:18;4.60;99.90
947;DHT22;460;48.734;9.152;2023-12-20T08:01:44;4.60;99.90
947;DHT22;460;48.734;9.152;2023-12-20T08:04:11;4.70;99.90
947;DHT22;460;48.734;9.152;2023-12-20T08:06:39;4.70;99.90
947;DHT22;460;48.734;9.152;2023-12-20T08:09:06;4.70;99.90
947;DHT22;460;48.734;9.152;2023-12-20T08:11:33;4.60;99.90
947;DHT22;460;48.734;9.152;2023-12-20T08:14:00;4.60;99.90
947;DHT22;460;48.734;9.152;2023-12-20T08:16:27;4.60;99.90
947;DHT22;460;48.734;9.152;2023-12-20T08:18:53;4.60;99.90
947;DHT22;460;48.734;9.152;2023-12-20T08:21:20;4.60;99.90
947;DHT22;460;48.734;9.152;2023-12-20T08:23:49;4.60;99.90
947;DHT22;460;48.734;9.152;2023-12-20T08:26:19;4.70;99.90
947;DHT22;460;48.734;9.152;2023-12-20T08:28:47;4.60;99.90
947;DHT22;460;48.734;9.152;2023-12-20T08:31:14;4.60;99.90
947;DHT22;460;48.734;9.152;2023-12-20T08:33:42;4.50;99.90
947;DHT22;460;48.734;9.152;2023-12-20T08:36:09;4.60;99.90
947;DHT22;460;48.734;9.152;2023-12-20T08:38:36;4.60;99.90
947;DHT22;460;48.734;9.152;2023-12-20T08:41:05;4.60;99.90
947;DHT22;460;48.734;9.152;2023-12-20T08:43:31;4.60;99.90
947;DHT22;460;48.734;9.152;2023-12-20T08:45:58;4.60;99.90
947;DHT22;460;48.734;9.152;2023-12-20T08:48:25;4.60;99.90
947;DHT22;460;48.734;9.152;2023-12-20T08:50:52;4.60;99.90
947;DHT22;460;48.734;9.152;2023-12-20T08:53:19;4.50;99.90
947;DHT22;460;48.734;9.152;2023-12-20T08:55:46;4.50;99.90
947;DHT22;460;48.734;9.152;2023-12-20T08:58:14;4.40;99.90
947;DHT22;460;48.734;9.152;2023-12-20T09:00:41;4.40;99.90
947;DHT22;460;48.734;9.152;2023-12-20T09:03:07;4.40;99.90
947;DHT22;460;48.734;9.152;2023-12-20T09:05:34;4.30;99.90
947;DHT22;460;48.734;9.152;2023-12-20T09:08:01;4.30;99.90
947;DHT22;460;48.734;9.152;2023-12-20T09:10:28;4.20;99.90
947;DHT22;460;48.734;9.152;2023-12-20T09:12:55;4.20;99.90
947;DHT22;460;48.734;9.152;2023-12-20T09:15:25;4.30;99.90
947;DHT22;460;48.734;9.152;2023-12-20T09:17:52;4.30;99.90
947;DHT22;460;48.734;9.152;2023-12-20T09:20:19;4.30;99.90
947;DHT22;460;48.734;9.152;2023-12-20T09:22:46;4.30;99.90
947;DHT22;460;48.734;9.152;2023-12-20T09:25:13;4.40;99.90
947;DHT22;460;48.734;9.152;2023-12-20T09:27:41;4.40;99.90
947;DHT22;460;48.734;9.152;2023-12-20T09:30:08;4.40;99.90
947;DHT22;460;48.734;9.152;2023-12-20T09:32:37;4.50;99.90
947;DHT22;460;48.734;9.152;2023-12-20T09:35:05;4.40;99.90
947;DHT22;460;48.734;9.152;2023-12-20T09:37:32;4.40;99.90
947;DHT22;460;48.734;9.152;2023-12-20T09:39:59;4.40;99.90
947;DHT22;460;48.734;9.152;2023-12-20T09:42:34;4.50;99.90
947;DHT22;460;48.734;9.152;2023-12-20T09:45:07;4.50;99.90
947;DHT22;460;48.734;9.152;2023-12-20T09:47:36;4.50;99.90
947;DHT22;460;48.734;9.152;2023-12-20T09:50:04;4.50;99.90
947;DHT22;460;48.734;9.152;2023-12-20T09:52:32;4.50;99.90
947;DHT22;460;48.734;9.152;2023-12-20T09:55:01;4.60;99.90
947;DHT22;460;48.734;9.152;2023-12-20T09:57:31;4.70;99.90
947;DHT22;460;48.734;9.152;2023-12-20T09:59:58;4.70;99.90
947;DHT22;460;48.734;9.152;2023-12-20T10:02:25;4.70;99.90
947;DHT22;460;48.734;9.152;2023-12-20T10:04:54;4.70;99.90
947;DHT22;460;48.734;9.152;2023-12-20T10:07:21;4.70;99.90
947;DHT22;460;48.734;9.152;2023-12-20T10:09:49;4.70;99.90
947;DHT22;460;48.734;9.152;2023-12-20T10:12:17;4.70;99.90
947;DHT22;460;48.734;9.152;2023-12-20T10:14:44;4.80;99.90
947;DHT22;460;48.734;9.152;2023-12-20T10:17:11;4.90;99.90
947;DHT22;460;48.734;9.152;2023-12-20T10:19:38;5.10;99.90
947;DHT22;460;48.734;9.152;2023-12-20T10:22:06;5.20;99.90
947;DHT22;460;48.734;9.152;2023-12-20T10:24:33;5.30;99.90
947;DHT22;460;48.734;9.152;2023-12-20T10:27:03;5.30;99.90
947;DHT22;460;48.734;9.152;2023-12-20T10:29:32;5.30;99.90
947;DHT22;460;48.734;9.152;2023-12-20T10:32:00;5.20;99.90
947;DHT22;460;48.734;9.152;2023-12-20T10:34:26;5.20;99.90
947;DHT22;460;48.734;9.152;2023-12-20T10:36:53;5.20;99.90
947;DHT22;460;48.734;9.152;2023-12-20T10:39:22;5.10;99.90
947;DHT22;460;48.734;9.152;2023-12-20T10:41:49;5.10;99.90
947;DHT22;460;48.734;9.152;2023-12-20T10:44:16;5.10;99.90
947;DHT22;460;48.734;9.152;2023-12-20T10:46:43;5.10;99.90
947;DHT22;460;48.734;9.152;2023-12-20T10:49:17;5.20;99.90
947;DHT22;460;48.734;9.152;2023-12-20T10:51:46;5.10;99.90
947;DHT22;460;48.734;9.152;2023-12-20T10:54:14;5.00;99.90
947;DHT22;460;48.734;9.152;2023-12-20T10:56:42;5.00;99.90
947;DHT22;460;48.734;9.152;2023-12-20T10:59:11;5.10;99.90
947;DHT22;460;48.734;9.152;2023-12-20T11:01:40;5.00;99.90
947;DHT22;460;48.734;9.152;2023-12-20T11:04:10;5.00;99.90
947;DHT22;460;48.734;9.152;2023-12-20T11:06:46;5.00;99.90
947;DHT22;460;48.734;9.152;2023-12-20T11:09:19;5.10;99.90
947;DHT22;460;48.734;9.152;2023-12-20T11:12:05;5.10;99.90
947;DHT22;460;48.734;9.152;2023-12-20T11:14:42;5.10;99.90
947;DHT22;460;48.734;9.152;2023-12-20T11:17:10;5.10;99.90
947;DHT22;460;48.734;9.152;2023-12-20T11:20:04;5.10;99.90
947;DHT22;460;48.734;9.152;2023-12-20T11:22:32;5.00;99.90
947;DHT22;460;48.734;9.152;2023-12-20T11:25:03;5.10;99.90
947;DHT22;460;48.734;9.152;2023-12-20T11:27:31;5.10;99.90
947;DHT22;460;48.734;9.152;2023-12-20T11:29:59;5.10;99.90
947;DHT22;460;48.734;9.152;2023-12-20T11:32:29;5.10;99.90
947;DHT22;460;48.734;9.152;2023-12-20T11:34:57;5.20;99.90
947;DHT22;460;48.734;9.152;2023-12-20T11:37:29;5.20;99.90
947;DHT22;460;48.734;9.152;2023-12-20T11:40:00;5.20;99.90
947;DHT22;460;48.734;9.152;2023-12-20T11:42:28;5.10;99.90
947;DHT22;460;48.734;9.152;2023-12-20T11:44:56;5.10;99.90
947;DHT22;460;48.734;9.152;2023-12-20T11:47:23;5.10;99.90
947;DHT22;460;48.734;9.152;2023-12-20T11:49:49;5.10;99.90
947;DHT22;460;48.734;9.152;2023-12-20T11:52:17;5.10;99.90
947;DHT22;460;48.734;9.152;2023-12-20T11:54:44;5.20;99.90
947;DHT22;460;48.734;9.152;2023-12-20T11:57:10;5.20;99.90
947;DHT22;460;48.734;9.152;2023-12-20T11:59:37;5.10;99.80
947;DHT22;460;48.734;9.152;2023-12-20T12:02:06;5.20;99.80
947;DHT22;460;48.734;9.152;2023-12-20T12:04:32;5.10;99.60
947;DHT22;460;48.734;9.152;2023-12-20T12:06:59;5.00;99.40
947;DHT22;460;48.734;9.152;2023-12-20T12:09:26;5.00;99.80
947;DHT22;460;48.734;9.152;2023-12-20T12:11:53;5.00;99.90
947;DHT22;460;48.734;9.152;2023-12-20T12:14:20;5.00;99.90
947;DHT22;460;48.734;9.152;2023-12-20T12:16:47;5.00;99.90
947;DHT22;460;48.734;9.152;2023-12-20T12:19:22;5.00;99.90
947;DHT22;460;48.734;9.152;2023-12-20T12:21:49;5.10;99.90
947;DHT22;460;48.734;9.152;2023-12-20T12:24:20;5.10;99.90
947;DHT22;460;48.734;9.152;2023-12-20T12:26:50;5.20;99.90
947;DHT22;460;48.734;9.152;2023-12-20T12:29:17;5.30;99.90
947;DHT22;460;48.734;9.152;2023-12-20T12:31:44;5.30;99.60
947;DHT22;460;48.734;9.152;2023-12-20T12:34:11;5.40;99.90
947;DHT22;460;48.734;9.152;2023-12-20T12:36:40;5.50;99.50
947;DHT22;460;48.734;9.152;2023-12-20T12:39:06;5.50;98.90
947;DHT22;460;48.734;9.152;2023-12-20T12:41:34;5.50;99.20
947;DHT22;460;48.734;9.152;2023-12-20T12:44:00;5.50;98.30
947;DHT22;460;48.734;9.152;2023-12-20T12:46:27;5.50;99.20
947;DHT22;460;48.734;9.152;2023-12-20T12:48:54;5.60;99.70
947;DHT22;460;48.734;9.152;2023-12-20T12:51:24;5.70;99.70
947;DHT22;460;48.734;9.152;2023-12-20T12:53:53;5.60;99.10
947;DHT22;460;48.734;9.152;2023-12-20T12:56:30;5.60;98.70
947;DHT22;460;48.734;9.152;2023-12-20T12:58:57;5.50;98.50
947;DHT22;460;48.734;9.152;2023-12-20T13:01:23;5.50;99.10
947;DHT22;460;48.734;9.152;2023-12-20T13:03:50;5.50;98.60
947;DHT22;460;48.734;9.152;2023-12-20T13:06:17;5.50;98.80
947;DHT22;460;48.734;9.152;2023-12-20T13:08:44;5.60;99.30
947;DHT22;460;48.734;9.152;2023-12-20T13:11:13;5.60;99.80
947;DHT22;460;48.734;9.152;2023-12-20T13:13:42;5.60;98.80
947;DHT22;460;48.734;9.152;2023-12-20T13:16:09;5.60;98.80
947;DHT22;460;48.734;9.152;2023-12-20T13:18:36;5.60;99.00
947;DHT22;460;48.734;9.152;2023-12-20T13:21:03;5.50;97.90
947;DHT22;460;48.734;9.152;2023-12-20T13:23:30;5.50;98.50
947;DHT22;460;48.734;9.152;2023-12-20T13:25:57;5.50;99.10
947;DHT22;460;48.734;9.152;2023-12-20T13:28:25;5.60;99.50
947;DHT22;460;48.734;9.152;2023-12-20T13:30:52;5.60;99.80
947;DHT22;460;48.734;9.152;2023-12-20T13:33:18;5.50;99.10
947;DHT22;460;48.734;9.152;2023-12-20T13:35:45;5.70;99.50
947;DHT22;460;48.734;9.152;2023-12-20T13:38:13;5.50;99.10
947;DHT22;460;48.734;9.152;2023-12-20T13:40:39;5.50;98.80
947;DHT22;460;48.734;9.152;2023-12-20T13:43:06;5.50;98.30
947;DHT22;460;48.734;9.152;2023-12-20T13:45:34;5.60;98.60
947;DHT22;460;48.734;9.152;2023-12-20T13:48:01;5.60;98.80
947;DHT22;460;48.734;9.152;2023-12-20T13:50:28;5.60;98.70
947;DHT22;460;48.734;9.152;2023-12-20T13:52:57;5.60;98.50
947;DHT22;460;48.734;9.152;2023-12-20T13:55:23;5.50;98.70
947;DHT22;460;48.734;9.152;2023-12-20T13:57:52;5.50;98.90
947;DHT22;460;48.734;9.152;2023-12-20T14:00:19;5.40;99.00
947;DHT22;460;48.734;9.152;2023-12-20T14:02:50;5.50;98.90
947;DHT22;460;48.734;9.152;2023-12-20T14:05:17;5.40;98.90
947;DHT22;460;48.734;9.152;2023-12-20T14:07:44;5.40;98.70
947;DHT22;460;48.734;9.152;2023-12-20T14:10:11;5.40;98.80
947;DHT22;460;48.734;9.152;2023-12-20T14:12:39;5.40;99.10
947;DHT22;460;48.734;9.152;2023-12-20T14:15:07;5.40;98.70
947;DHT22;460;48.734;9.152;2023-12-20T14:17:37;5.30;98.90
947;DHT22;460;48.734;9.152;2023-12-20T14:20:06;5.30;99.40
947;DHT22;460;48.734;9.152;2023-12-20T14:22:33;5.40;99.10
947;DHT22;460;48.734;9.152;2023-12-20T14:25:00;5.30;99.30
947;DHT22;460;48.734;9.152;2023-12-20T14:27:27;5.30;99.60
947;DHT22;460;48.734;9.152;2023-12-20T14:29:54;5.30;99.80
947;DHT22;460;48.734;9.152;2023-12-20T14:32:21;5.20;99.90
947;DHT22;460;48.734;9.152;2023-12-20T14:34:48;5.20;99.90
947;DHT22;460;48.734;9.152;2023-12-20T14:37:16;5.10;99.90
947;DHT22;460;48.734;9.152;2023-12-20T14:39:43;5.10;99.90
947;DHT22;460;48.734;9.152;2023-12-20T14:42:09;5.10;99.90
947;DHT22;460;48.734;9.152;2023-12-20T14:44:39;5.10;99.90
947;DHT22;460;48.734;9.152;2023-12-20T14:47:06;5.00;99.90
947;DHT22;460;48.734;9.152;2023-12-20T14:49:33;5.10;99.90
947;DHT22;460;48.734;9.152;2023-12-20T14:51:59;5.10;99.90
947;DHT22;460;48.734;9.152;2023-12-20T14:54:27;5.00;99.90
947;DHT22;460;48.734;9.152;2023-12-20T14:56:54;4.90;99.90
947;DHT22;460;48.734;9.152;2023-12-20T14:59:21;5.00;99.90
947;DHT22;460;48.734;9.152;2023-12-20T15:01:48;5.00;99.90
947;DHT22;460;48.734;9.152;2023-12-20T15:04:15;5.00;99.90
947;DHT22;460;48.734;9.152;2023-12-20T15:06:42;5.00;99.90
947;DHT22;460;48.734;9.152;2023-12-20T15:09:10;4.90;99.90
947;DHT22;460;48.734;9.152;2023-12-20T15:11:38;5.00;99.90
947;DHT22;460;48.734;9.152;2023-12-20T15:14:06;5.00;99.90
947;DHT22;460;48.734;9.152;2023-12-20T15:16:34;4.90;99.90
947;DHT22;460;48.734;9.152;2023-12-20T15:19:01;4.80;99.90
947;DHT22;460;48.734;9.152;2023-12-20T15:21:28;4.80;99.90
947;DHT22;460;48.734;9.152;2023-12-20T15:23:57;4.80;99.90
947;DHT22;460;48.734;9.152;2023-12-20T15:26:32;4.80;99.90
947;DHT22;460;48.734;9.152;2023-12-20T15:29:00;4.70;99.90
947;DHT22;460;48.734;9.152;2023-12-20T15:31:27;4.80;99.90
947;DHT22;460;48.734;9.152;2023-12-20T15:33:53;4.70;99.90
947;DHT22;460;48.734;9.152;2023-12-20T15:36:20;4.80;99.90
947;DHT22;460;48.734;9.152;2023-12-20T15:38:47;4.70;99.90
947;DHT22;460;48.734;9.152;2023-12-20T15:41:17;4.80;99.90
947;DHT22;460;48.734;9.152;2023-12-20T15:43:44;4.80;99.90
947;DHT22;460;48.734;9.152;2023-12-20T15:46:13;4.80;99.90
947;DHT22;460;48.734;9.152;2023-12-20T15:48:40;4.80;99.90
947;DHT22;460;48.734;9.152;2023-12-20T15:51:08;5.00;99.90
947;DHT22;460;48.734;9.152;2023-12-20T15:53:35;4.90;99.90
947;DHT22;460;48.734;9.152;2023-12-20T15:56:03;5.00;99.90
947;DHT22;460;48.734;9.152;2023-12-20T15:58:30;4.90;99.90
947;DHT22;460;48.734;9.152;2023-12-20T16:00:57;5.00;99.90
947;DHT22;460;48.734;9.152;2023-12-20T16:03:25;4.90;99.90
947;DHT22;460;48.734;9.152;2023-12-20T16:05:52;4.90;99.90
947;DHT22;460;48.734;9.152;2023-12-20T16:08:19;4.80;99.90
947;DHT22;460;48.734;9.152;2023-12-20T16:10:46;4.80;99.90
947;DHT22;460;48.734;9.152;2023-12-20T16:13:13;4.90;99.90
947;DHT22;460;48.734;9.152;2023-12-20T16:15:40;4.90;99.90
947;DHT22;460;48.734;9.152;2023-12-20T16:18:08;4.90;99.90
947;DHT22;460;48.734;9.152;2023-12-20T16:20:37;4.90;99.90
947;DHT22;460;48.734;9.152;2023-12-20T16:23:04;5.00;99.90
947;DHT22;460;48.734;9.152;2023-12-20T16:25:31;5.00;99.90
947;DHT22;460;48.734;9.152;2023-12-20T16:27:58;4.90;99.90
947;DHT22;460;48.734;9.152;2023-12-20T16:30:25;4.80;99.90
947;DHT22;460;48.734;9.152;2023-12-20T16:32:52;4.90;99.90
947;DHT22;460;48.734;9.152;2023-12-20T16:35:19;4.90;99.90
947;DHT22;460;48.734;9.152;2023-12-20T16:37:47;4.80;99.90
947;DHT22;460;48.734;9.152;2023-12-20T16:40:14;4.80;99.90
947;DHT22;460;48.734;9.152;2023-12-20T16:42:44;4.70;99.90
947;DHT22;460;48.734;9.152;2023-12-20T16:45:11;4.70;99.90
947;DHT22;460;48.734;9.152;2023-12-20T16:47:38;4.80;99.90
947;DHT22;460;48.734;9.152;2023-12-20T16:50:06;4.70;99.90
947;DHT22;460;48.734;9.152;2023-12-20T16:52:33;4.70;99.90